Terminal Aerodrome Forecast
Issued by NWS

Home | Current Version | Previous Version | Text Only | Print | Product List | Glossary On
Versions: 1 2 3 4 5 6 7 8 9 10 11 12 13 14 15
739
FTUS43 KSGF 242335
TAFBBG
TAF
KBBG 242335Z 2500/2524 19003KT P6SM SCT250
     FM251000 21004KT P6SM VCSH SCT080 BKN200
     FM251600 31005KT P6SM VCTS SCT050CB BKN120=

USA.gov is the U.S. government's official web portal to all federal, state and local government web resources and services.